Time;durP1;ratioP1;P1;durP2;ratioP2;P2;SDS_P1;SDS_P2;PMS_P1;PMS_P2;Temp;Humidity;BMP_temperature;BMP_pressure;BME280_temperature;BME280_humidity;BME280_pressure;Samples;Min_cycle;Max_cycle;Signal;HPM_P1;HPM_P2
2024/01/08 00:02:10;;;;;;;0.40;0.40;;;;;;;;;;6305709;28;20055;-73
2024/01/08 00:05:10;;;;;;;0.40;0.40;;;;;;;;;;6326895;28;20101;-74
2024/01/08 00:08:10;;;;;;;0.40;0.40;;;;;;;;;;6312174;28;20020;-73
2024/01/08 00:11:10;;;;;;;0.50;0.50;;;;;;;;;;6328612;28;20103;-73
2024/01/08 00:14:10;;;;;;;0.40;0.40;;;;;;;;;;6328655;28;20105;-72
2024/01/08 00:17:11;;;;;;;0.40;0.40;;;;;;;;;;6320027;28;20044;-72
2024/01/08 00:20:11;;;;;;;0.40;0.40;;;;;;;;;;6328453;28;20019;-72
2024/01/08 00:23:11;;;;;;;0.43;0.43;;;;;;;;;;6317906;28;20016;-72
2024/01/08 00:26:11;;;;;;;0.40;0.40;;;;;;;;;;6331140;28;20142;-73
2024/01/08 00:29:11;;;;;;;0.40;0.40;;;;;;;;;;6332127;28;20023;-76
2024/01/08 00:32:12;;;;;;;0.40;0.40;;;;;;;;;;6331013;28;20112;-77
2024/01/08 00:35:12;;;;;;;0.40;0.40;;;;;;;;;;6333794;28;20016;-76
2024/01/08 00:38:12;;;;;;;0.40;0.40;;;;;;;;;;6313942;28;20016;-78
2024/01/08 00:41:12;;;;;;;0.40;0.40;;;;;;;;;;6322952;28;20026;-72
2024/01/08 00:44:13;;;;;;;0.40;0.40;;;;;;;;;;6334534;28;20019;-72
2024/01/08 00:47:13;;;;;;;0.40;0.40;;;;;;;;;;6334528;28;20016;-72
2024/01/08 00:50:13;;;;;;;0.40;0.40;;;;;;;;;;6304442;28;20023;-72
2024/01/08 00:53:13;;;;;;;0.40;0.40;;;;;;;;;;6333575;28;20017;-72
2024/01/08 00:56:15;;;;;;;0.37;0.37;;;;;;;;;;6322400;28;20027;-72
2024/01/08 00:59:15;;;;;;;;;;;;;;;;;;6321278;28;20100;-72
2024/01/08 01:02:15;;;;;;;0.43;0.43;;;;;;;;;;6316952;28;19912;-72
2024/01/08 01:05:16;;;;;;;0.40;0.40;;;;;;;;;;6339070;28;20462;-72
2024/01/08 01:08:16;;;;;;;0.30;0.30;;;;;;;;;;6335070;28;20054;-72
2024/01/08 01:11:16;;;;;;;0.37;0.37;;;;;;;;;;6331203;28;20103;-72
2024/01/08 01:14:16;;;;;;;0.30;0.30;;;;;;;;;;6315930;28;20513;-72
2024/01/08 01:17:17;;;;;;;0.40;0.40;;;;;;;;;;6326362;28;20024;-72
2024/01/08 01:20:17;;;;;;;0.40;0.40;;;;;;;;;;6332051;28;20018;-72
2024/01/08 01:23:17;;;;;;;0.47;0.47;;;;;;;;;;6297371;28;20047;-72
2024/01/08 01:26:17;;;;;;;0.40;0.40;;;;;;;;;;6326362;28;20051;-72
2024/01/08 01:29:18;;;;;;;0.50;0.50;;;;;;;;;;6330197;28;20015;-72
2024/01/08 01:32:18;;;;;;;0.40;0.40;;;;;;;;;;6331459;28;20016;-72
2024/01/08 01:35:18;;;;;;;0.60;0.60;;;;;;;;;;6328909;28;20070;-71
2024/01/08 01:38:19;;;;;;;0.50;0.50;;;;;;;;;;6334242;28;20023;-72
2024/01/08 01:41:19;;;;;;;0.50;0.50;;;;;;;;;;6325396;28;20508;-72
2024/01/08 01:44:19;;;;;;;0.40;0.40;;;;;;;;;;6334300;28;20020;-72
2024/01/08 01:47:20;;;;;;;0.40;0.40;;;;;;;;;;6332128;28;20047;-71
2024/01/08 01:50:21;;;;;;;0.40;0.40;;;;;;;;;;6325313;28;20378;-72
2024/01/08 01:53:22;;;;;;;0.50;0.50;;;;;;;;;;6321687;28;20594;-71
2024/01/08 01:56:22;;;;;;;0.60;0.60;;;;;;;;;;6337607;28;20020;-72
2024/01/08 01:59:24;;;;;;;0.40;0.40;;;;;;;;;;6333831;28;20307;-71
2024/01/08 02:02:27;;;;;;;0.50;0.50;;;;;;;;;;6333820;28;20012;-71
2024/01/08 02:05:28;;;;;;;0.40;0.40;;;;;;;;;;6333048;28;20012;-72
2024/01/08 02:08:28;;;;;;;0.40;0.40;;;;;;;;;;6332877;28;20485;-71
2024/01/08 02:11:29;;;;;;;0.40;0.40;;;;;;;;;;6326210;28;20024;-71
2024/01/08 02:14:29;;;;;;;0.40;0.40;;;;;;;;;;6332337;28;20296;-71
2024/01/08 02:17:29;;;;;;;0.40;0.40;;;;;;;;;;6330264;28;20390;-71
2024/01/08 02:20:30;;;;;;;0.50;0.50;;;;;;;;;;6336038;28;20023;-71
2024/01/08 02:23:30;;;;;;;0.40;0.40;;;;;;;;;;6323881;28;20031;-71
2024/01/08 02:26:30;;;;;;;0.50;0.50;;;;;;;;;;6330091;28;20089;-73
2024/01/08 02:29:31;;;;;;;0.40;0.40;;;;;;;;;;6332215;28;20018;-73
2024/01/08 02:32:31;;;;;;;0.50;0.50;;;;;;;;;;6333693;28;20043;-73
2024/01/08 02:35:31;;;;;;;0.40;0.40;;;;;;;;;;6324427;28;20019;-73
2024/01/08 02:38:31;;;;;;;0.40;0.40;;;;;;;;;;6326438;28;20523;-73
2024/01/08 02:41:31;;;;;;;0.40;0.40;;;;;;;;;;6330190;28;20092;-73
2024/01/08 02:44:32;;;;;;;0.40;0.40;;;;;;;;;;6317414;28;20012;-73
2024/01/08 02:47:37;;;;;;;0.40;0.40;;;;;;;;;;6317583;28;20390;-74
2024/01/08 02:50:37;;;;;;;0.40;0.40;;;;;;;;;;6333265;28;20030;-73
2024/01/08 02:53:37;;;;;;;0.40;0.40;;;;;;;;;;6307939;28;20107;-73
2024/01/08 02:56:37;;;;;;;0.53;0.53;;;;;;;;;;6330271;28;20012;-73
2024/01/08 02:59:38;;;;;;;0.40;0.40;;;;;;;;;;6337287;28;20056;-73
2024/01/08 03:02:38;;;;;;;0.47;0.47;;;;;;;;;;6312449;28;20538;-73
2024/01/08 03:05:38;;;;;;;0.40;0.40;;;;;;;;;;6315543;28;20031;-73
2024/01/08 03:08:38;;;;;;;0.47;0.47;;;;;;;;;;6331633;28;20008;-73
2024/01/08 03:11:38;;;;;;;0.50;0.50;;;;;;;;;;6323013;28;20015;-73
2024/01/08 03:14:39;;;;;;;0.50;0.50;;;;;;;;;;6324255;28;20095;-73
2024/01/08 03:17:39;;;;;;;0.40;0.40;;;;;;;;;;6329866;28;20027;-73
2024/01/08 03:20:40;;;;;;;0.40;0.40;;;;;;;;;;6321182;28;20020;-73
2024/01/08 03:23:40;;;;;;;0.40;0.40;;;;;;;;;;6320647;28;20020;-73
2024/01/08 03:26:40;;;;;;;0.40;0.40;;;;;;;;;;6286644;28;20043;-73
2024/01/08 03:29:40;;;;;;;0.37;0.37;;;;;;;;;;6307617;28;20543;-73
2024/01/08 03:32:41;;;;;;;0.43;0.43;;;;;;;;;;6320213;28;20046;-73
2024/01/08 03:35:43;;;;;;;0.50;0.50;;;;;;;;;;6310788;28;20009;-73
2024/01/08 03:38:43;;;;;;;0.40;0.40;;;;;;;;;;6320159;28;20020;-73
2024/01/08 03:41:43;;;;;;;0.40;0.40;;;;;;;;;;6303379;28;20520;-73
2024/01/08 03:44:44;;;;;;;0.50;0.50;;;;;;;;;;6302901;28;20023;-73
2024/01/08 03:47:44;;;;;;;0.40;0.40;;;;;;;;;;6317092;28;20040;-73
2024/01/08 03:50:44;;;;;;;0.50;0.50;;;;;;;;;;6308500;28;20059;-73
2024/01/08 03:53:45;;;;;;;0.50;0.50;;;;;;;;;;6309622;28;20213;-72
2024/01/08 03:56:45;;;;;;;0.50;0.50;;;;;;;;;;6321332;28;20016;-73
2024/01/08 03:59:45;;;;;;;0.67;0.67;;;;;;;;;;6323226;28;20016;-73
2024/01/08 04:02:46;;;;;;;0.50;0.50;;;;;;;;;;6332201;28;20059;-73
2024/01/08 04:05:46;;;;;;;0.40;0.40;;;;;;;;;;6317997;28;20024;-73
2024/01/08 04:08:46;;;;;;;0.40;0.40;;;;;;;;;;6305915;28;20103;-73
2024/01/08 04:11:46;;;;;;;0.50;0.50;;;;;;;;;;6321306;28;20043;-73
2024/01/08 04:14:46;;;;;;;0.50;0.50;;;;;;;;;;6314388;28;20421;-73
2024/01/08 04:17:47;;;;;;;0.40;0.40;;;;;;;;;;6318242;28;20070;-73
2024/01/08 04:20:47;;;;;;;0.50;0.50;;;;;;;;;;6322605;28;20070;-73
2024/01/08 04:23:47;;;;;;;0.47;0.47;;;;;;;;;;6317815;28;20161;-72
2024/01/08 04:26:47;;;;;;;0.50;0.50;;;;;;;;;;6310794;28;20449;-73
2024/01/08 04:29:47;;;;;;;0.63;0.63;;;;;;;;;;6322043;28;20020;-73
2024/01/08 04:32:48;;;;;;;0.50;0.50;;;;;;;;;;6303729;28;20107;-73
2024/01/08 04:35:48;;;;;;;0.40;0.40;;;;;;;;;;6304531;28;20011;-73
2024/01/08 04:38:48;;;;;;;0.40;0.40;;;;;;;;;;6324988;28;20133;-73
2024/01/08 04:41:48;;;;;;;0.50;0.50;;;;;;;;;;6319592;28;20099;-73
2024/01/08 04:44:49;;;;;;;0.50;0.50;;;;;;;;;;6318103;28;20046;-71
2024/01/08 04:47:49;;;;;;;0.40;0.40;;;;;;;;;;6319993;28;20025;-70
2024/01/08 04:50:49;;;;;;;0.50;0.50;;;;;;;;;;6306530;28;20511;-71
2024/01/08 04:53:50;;;;;;;0.50;0.50;;;;;;;;;;6317980;28;20035;-72
2024/01/08 04:56:50;;;;;;;0.50;0.50;;;;;;;;;;6320187;28;20020;-73
2024/01/08 04:59:50;;;;;;;0.60;0.60;;;;;;;;;;6322191;28;20016;-73
2024/01/08 05:02:50;;;;;;;0.50;0.50;;;;;;;;;;6319963;28;20479;-73
2024/01/08 05:05:51;;;;;;;0.40;0.40;;;;;;;;;;6310199;28;20434;-72
2024/01/08 05:08:51;;;;;;;0.50;0.50;;;;;;;;;;6316022;28;20028;-73
2024/01/08 05:11:51;;;;;;;0.50;0.50;;;;;;;;;;6309043;28;20063;-73
2024/01/08 05:14:51;;;;;;;0.50;0.50;;;;;;;;;;6311346;28;20023;-73
2024/01/08 05:17:51;;;;;;;0.50;0.50;;;;;;;;;;6303528;28;20013;-73
2024/01/08 05:20:52;;;;;;;0.50;0.50;;;;;;;;;;6320545;28;20015;-73
2024/01/08 05:23:52;;;;;;;0.50;0.50;;;;;;;;;;6318263;28;20430;-72
2024/01/08 05:26:52;;;;;;;0.40;0.40;;;;;;;;;;6314219;28;20597;-73
2024/01/08 05:29:52;;;;;;;0.50;0.50;;;;;;;;;;6327230;28;20022;-73
2024/01/08 05:32:53;;;;;;;0.43;0.43;;;;;;;;;;6316777;28;20027;-73
2024/01/08 05:35:53;;;;;;;0.50;0.50;;;;;;;;;;6320281;28;20023;-73
2024/01/08 05:38:54;;;;;;;0.50;0.50;;;;;;;;;;6311094;28;20012;-73
2024/01/08 05:41:54;;;;;;;0.40;0.40;;;;;;;;;;6320876;28;20007;-73
2024/01/08 05:44:54;;;;;;;0.45;0.45;;;;;;;;;;6296924;28;20023;-73
2024/01/08 05:47:54;;;;;;;0.40;0.40;;;;;;;;;;6312073;28;20495;-73
2024/01/08 05:50:55;;;;;;;0.50;0.50;;;;;;;;;;6309534;28;20020;-73
2024/01/08 05:53:55;;;;;;;0.40;0.40;;;;;;;;;;6314613;28;20028;-73
2024/01/08 05:56:56;;;;;;;0.40;0.40;;;;;;;;;;6309947;28;20019;-73
2024/01/08 05:59:56;;;;;;;0.50;0.50;;;;;;;;;;6311291;28;20434;-73
2024/01/08 06:02:56;;;;;;;0.50;0.50;;;;;;;;;;6318259;28;20047;-73
2024/01/08 06:05:56;;;;;;;0.60;0.60;;;;;;;;;;6307689;28;20055;-71
2024/01/08 06:08:57;;;;;;;0.50;0.50;;;;;;;;;;6297137;28;20475;-71
2024/01/08 06:11:58;;;;;;;0.40;0.40;;;;;;;;;;6305124;28;20107;-71
2024/01/08 06:14:58;;;;;;;;;;;;;;;;;;6293334;28;20119;-71
2024/01/08 06:17:58;;;;;;;0.50;0.50;;;;;;;;;;6295864;28;19922;-71
2024/01/08 06:20:59;;;;;;;0.43;0.43;;;;;;;;;;6318127;28;20035;-71
2024/01/08 06:23:59;;;;;;;0.50;0.50;;;;;;;;;;6314976;28;20035;-71
2024/01/08 06:26:59;;;;;;;0.40;0.40;;;;;;;;;;6321682;28;20079;-71
2024/01/08 06:29:59;;;;;;;0.50;0.50;;;;;;;;;;6332190;28;20077;-70
2024/01/08 06:32:59;;;;;;;0.50;0.50;;;;;;;;;;6308458;28;20020;-72
2024/01/08 06:36:00;;;;;;;0.50;0.50;;;;;;;;;;6327159;28;20051;-76
2024/01/08 06:39:00;;;;;;;0.50;0.50;;;;;;;;;;6320353;28;20025;-75
2024/01/08 06:42:01;;;;;;;0.40;0.40;;;;;;;;;;6296799;28;20033;-76
2024/01/08 06:45:01;;;;;;;0.40;0.40;;;;;;;;;;6320046;28;20058;-75
2024/01/08 06:48:01;;;;;;;0.40;0.40;;;;;;;;;;6331110;28;20031;-70
2024/01/08 06:51:02;;;;;;;0.43;0.43;;;;;;;;;;6337521;28;20024;-70
2024/01/08 06:54:02;;;;;;;0.50;0.50;;;;;;;;;;6337787;28;20028;-70
2024/01/08 06:57:02;;;;;;;0.57;0.57;;;;;;;;;;6342629;28;20103;-71
2024/01/08 07:00:04;;;;;;;0.50;0.50;;;;;;;;;;6318433;28;20028;-70
2024/01/08 07:03:05;;;;;;;0.47;0.47;;;;;;;;;;6313286;28;20028;-70
2024/01/08 07:06:05;;;;;;;0.40;0.40;;;;;;;;;;6315683;28;20462;-71
2024/01/08 07:09:06;;;;;;;0.57;0.57;;;;;;;;;;6319046;28;20054;-70
2024/01/08 07:12:06;;;;;;;0.50;0.50;;;;;;;;;;6342108;28;20074;-71
2024/01/08 07:15:07;;;;;;;0.50;0.50;;;;;;;;;;6337116;28;20074;-73
2024/01/08 07:18:10;;;;;;;0.60;0.60;;;;;;;;;;6336906;28;20267;-73
2024/01/08 07:21:13;;;;;;;0.50;0.50;;;;;;;;;;6334900;28;20024;-73
2024/01/08 07:24:14;;;;;;;0.50;0.50;;;;;;;;;;6313678;28;20474;-70
2024/01/08 07:27:14;;;;;;;0.50;0.50;;;;;;;;;;6335712;28;20054;-71
2024/01/08 07:30:14;;;;;;;0.40;0.40;;;;;;;;;;6325806;28;20026;-70
2024/01/08 07:33:15;;;;;;;0.50;0.50;;;;;;;;;;6319654;28;20016;-70
2024/01/08 07:36:15;;;;;;;0.40;0.40;;;;;;;;;;6311226;28;20071;-73
2024/01/08 07:39:15;;;;;;;0.40;0.40;;;;;;;;;;6307732;28;20855;-73
2024/01/08 07:42:15;;;;;;;0.40;0.40;;;;;;;;;;6313735;28;20016;-72
2024/01/08 07:45:16;;;;;;;0.40;0.40;;;;;;;;;;6316204;28;20028;-73
2024/01/08 07:48:16;;;;;;;0.40;0.40;;;;;;;;;;6311903;28;20625;-73
2024/01/08 07:51:21;;;;;;;0.50;0.50;;;;;;;;;;6319437;28;20024;-73
2024/01/08 07:54:21;;;;;;;0.40;0.40;;;;;;;;;;6323236;28;20026;-73
2024/01/08 07:57:22;;;;;;;0.50;0.50;;;;;;;;;;6324339;28;20386;-72
2024/01/08 08:00:24;;;;;;;0.40;0.40;;;;;;;;;;6329410;28;20068;-73
2024/01/08 08:03:24;;;;;;;0.40;0.40;;;;;;;;;;6327840;28;20023;-73
2024/01/08 08:06:26;;;;;;;0.40;0.40;;;;;;;;;;6309203;28;20021;-73
2024/01/08 08:09:28;;;;;;;;;;;;;;;;;;6301482;28;20027;-73
2024/01/08 08:12:28;;;;;;;;;;;;;;;;;;6335922;28;20315;-73
2024/01/08 08:15:28;;;;;;;0.40;0.40;;;;;;;;;;6326764;28;19919;-73
2024/01/08 08:18:28;;;;;;;0.40;0.40;;;;;;;;;;6322031;28;20044;-73
2024/01/08 08:21:30;;;;;;;0.40;0.40;;;;;;;;;;6316154;28;20087;-73
2024/01/08 08:24:30;;;;;;;0.43;0.43;;;;;;;;;;6310773;28;20052;-70
2024/01/08 08:27:32;;;;;;;0.40;0.40;;;;;;;;;;6307850;28;20401;-70
2024/01/08 08:30:32;;;;;;;0.40;0.40;;;;;;;;;;6324876;28;20015;-71
2024/01/08 08:33:32;;;;;;;0.40;0.40;;;;;;;;;;6325687;28;20017;-71
2024/01/08 08:36:33;;;;;;;0.30;0.30;;;;;;;;;;6314971;28;20032;-71
2024/01/08 08:39:33;;;;;;;0.50;0.50;;;;;;;;;;6303661;28;20015;-70
2024/01/08 08:42:33;;;;;;;0.30;0.30;;;;;;;;;;6281968;28;20016;-71
2024/01/08 08:45:34;;;;;;;0.40;0.40;;;;;;;;;;6304426;28;20378;-70
2024/01/08 08:48:34;;;;;;;0.40;0.40;;;;;;;;;;6306595;28;20082;-70
2024/01/08 08:51:34;;;;;;;0.40;0.40;;;;;;;;;;6311065;28;20091;-70
2024/01/08 08:54:34;;;;;;;0.40;0.40;;;;;;;;;;6313012;28;20020;-72
2024/01/08 08:57:36;;;;;;;0.40;0.40;;;;;;;;;;6298003;28;20070;-73
2024/01/08 09:00:36;;;;;;;0.50;0.50;;;;;;;;;;6311629;28;20039;-73
2024/01/08 09:03:36;;;;;;;0.30;0.30;;;;;;;;;;6298543;28;20061;-72
2024/01/08 09:06:37;;;;;;;0.40;0.40;;;;;;;;;;6316987;28;20023;-72
2024/01/08 09:09:38;;;;;;;0.40;0.40;;;;;;;;;;6313138;28;20418;-72
2024/01/08 09:12:38;;;;;;;0.40;0.40;;;;;;;;;;6306703;28;20027;-72
2024/01/08 09:15:38;;;;;;;0.40;0.40;;;;;;;;;;6305988;28;20031;-72
2024/01/08 09:18:38;;;;;;;0.40;0.40;;;;;;;;;;6305624;28;20074;-72
2024/01/08 09:21:39;;;;;;;0.40;0.40;;;;;;;;;;6327710;28;20203;-72
2024/01/08 09:24:39;;;;;;;0.40;0.40;;;;;;;;;;6337777;28;20007;-72
2024/01/08 09:27:39;;;;;;;0.40;0.40;;;;;;;;;;6330600;28;20044;-72
2024/01/08 09:30:40;;;;;;;0.50;0.50;;;;;;;;;;6325438;28;20363;-72
2024/01/08 09:33:41;;;;;;;0.40;0.40;;;;;;;;;;6336073;28;20018;-70
2024/01/08 09:36:41;;;;;;;0.40;0.40;;;;;;;;;;6334967;28;20019;-72
2024/01/08 09:39:41;;;;;;;0.40;0.40;;;;;;;;;;6330396;28;20103;-72
2024/01/08 09:42:41;;;;;;;0.40;0.40;;;;;;;;;;6331471;28;20005;-72
2024/01/08 09:45:56;;;;;;;0.30;0.30;;;;;;;;;;6329342;28;20431;-72
2024/01/08 09:48:57;;;;;;;0.40;0.40;;;;;;;;;;6333291;28;20026;-72
2024/01/08 09:51:58;;;;;;;0.35;0.35;;;;;;;;;;6310439;28;20016;-72
2024/01/08 09:54:59;;;;;;;0.40;0.40;;;;;;;;;;6337916;28;20019;-72
2024/01/08 09:58:01;;;;;;;0.30;0.30;;;;;;;;;;6331509;28;20432;-72
2024/01/08 10:01:01;;;;;;;0.40;0.40;;;;;;;;;;6329563;28;20024;-72
2024/01/08 10:04:01;;;;;;;0.40;0.40;;;;;;;;;;6318130;28;20025;-72
2024/01/08 10:07:02;;;;;;;0.30;0.30;;;;;;;;;;6311764;28;20032;-72
2024/01/08 10:10:03;;;;;;;0.32;0.32;;;;;;;;;;6311187;28;20432;-72
2024/01/08 10:13:04;;;;;;;0.40;0.40;;;;;;;;;;6332445;28;20024;-72
2024/01/08 10:16:04;;;;;;;0.40;0.40;;;;;;;;;;6330284;28;20117;-71
2024/01/08 10:19:05;;;;;;;0.30;0.30;;;;;;;;;;6321077;28;20529;-72
2024/01/08 10:22:07;;;;;;;0.30;0.30;;;;;;;;;;6306116;28;20386;-71
2024/01/08 10:25:08;;;;;;;0.40;0.40;;;;;;;;;;6330571;28;20028;-72
2024/01/08 10:28:08;;;;;;;0.40;0.40;;;;;;;;;;6314094;28;20047;-72
2024/01/08 10:31:09;;;;;;;0.30;0.30;;;;;;;;;;6312141;28;20482;-72
2024/01/08 10:34:09;;;;;;;0.40;0.40;;;;;;;;;;6306276;28;20285;-71
2024/01/08 10:37:10;;;;;;;0.40;0.40;;;;;;;;;;6293189;28;20059;-71
2024/01/08 10:40:12;;;;;;;0.40;0.40;;;;;;;;;;6283261;28;20028;-71
2024/01/08 10:43:13;;;;;;;0.40;0.40;;;;;;;;;;6284060;28;20025;-71
2024/01/08 10:46:13;;;;;;;0.40;0.40;;;;;;;;;;6285005;28;20024;-73
2024/01/08 10:49:16;;;;;;;0.30;0.30;;;;;;;;;;6293333;28;20093;-72
2024/01/08 10:52:37;;;;;;;0.40;0.40;;;;;;;;;;6290514;28;20456;-72
2024/01/08 10:55:39;;;;;;;0.50;0.50;;;;;;;;;;6307749;28;20023;-72
2024/01/08 10:58:43;;;;;;;0.40;0.40;;;;;;;;;;6312366;28;20073;-72
2024/01/08 11:01:45;;;;;;;0.30;0.30;;;;;;;;;;6298199;28;20417;-72
2024/01/08 11:04:45;;;;;;;0.40;0.40;;;;;;;;;;6279584;28;20031;-74
2024/01/08 11:07:47;;;;;;;0.40;0.40;;;;;;;;;;6289650;28;20116;-71
2024/01/08 11:10:49;;;;;;;0.40;0.40;;;;;;;;;;6285788;28;20177;-71
2024/01/08 11:13:49;;;;;;;0.30;0.30;;;;;;;;;;6289992;28;20028;-71
2024/01/08 11:16:50;;;;;;;0.30;0.30;;;;;;;;;;6301343;28;20031;-71
2024/01/08 11:19:54;;;;;;;0.40;0.40;;;;;;;;;;6305037;28;20098;-71
2024/01/08 11:22:54;;;;;;;0.30;0.30;;;;;;;;;;6303847;28;20044;-70
2024/01/08 11:25:55;;;;;;;0.30;0.30;;;;;;;;;;6296874;28;20048;-71
2024/01/08 11:29:03;;;;;;;0.30;0.30;;;;;;;;;;6305037;28;20024;-70
2024/01/08 11:32:03;;;;;;;0.30;0.30;;;;;;;;;;6328060;28;20020;-71
2024/01/08 11:35:06;;;;;;;0.30;0.30;;;;;;;;;;6311828;28;20660;-71
2024/01/08 11:38:24;;;;;;;0.30;0.30;;;;;;;;;;6299449;28;20062;-71
2024/01/08 11:41:24;;;;;;;0.40;0.40;;;;;;;;;;6312051;28;20103;-71
2024/01/08 11:44:25;;;;;;;0.30;0.30;;;;;;;;;;6319530;28;20039;-71
2024/01/08 11:47:25;;;;;;;0.30;0.30;;;;;;;;;;6310912;28;20037;-72
2024/01/08 11:50:25;;;;;;;0.30;0.30;;;;;;;;;;6315981;28;20027;-72
2024/01/08 11:53:25;;;;;;;0.30;0.30;;;;;;;;;;6321301;28;20491;-72
2024/01/08 11:56:26;;;;;;;0.30;0.30;;;;;;;;;;6329500;28;20115;-71
2024/01/08 11:59:33;;;;;;;0.30;0.30;;;;;;;;;;6324940;28;20020;-72
2024/01/08 12:02:38;;;;;;;0.30;0.30;;;;;;;;;;6303274;28;20023;-72
2024/01/08 12:05:38;;;;;;;0.30;0.30;;;;;;;;;;6323541;28;20020;-72
2024/01/08 12:08:38;;;;;;;0.30;0.30;;;;;;;;;;6322271;28;20031;-71
2024/01/08 12:11:38;;;;;;;0.30;0.30;;;;;;;;;;6310552;28;20457;-72
2024/01/08 12:14:40;;;;;;;0.30;0.30;;;;;;;;;;6306857;28;20669;-72
2024/01/08 12:17:40;;;;;;;0.30;0.30;;;;;;;;;;6324926;28;20035;-71
2024/01/08 12:20:40;;;;;;;0.30;0.30;;;;;;;;;;6323603;28;20083;-71
2024/01/08 12:23:41;;;;;;;0.30;0.30;;;;;;;;;;6331957;28;20477;-71
2024/01/08 12:26:41;;;;;;;0.30;0.30;;;;;;;;;;6334358;28;20135;-71
2024/01/08 12:29:42;;;;;;;0.30;0.30;;;;;;;;;;6324376;28;20076;-72
2024/01/08 12:32:42;;;;;;;0.30;0.30;;;;;;;;;;6310734;28;20127;-72
2024/01/08 12:35:44;;;;;;;0.30;0.30;;;;;;;;;;6304363;28;20055;-72
2024/01/08 12:38:44;;;;;;;0.30;0.30;;;;;;;;;;6326786;28;20474;-71
2024/01/08 12:41:44;;;;;;;0.30;0.30;;;;;;;;;;6312147;28;20024;-72
2024/01/08 12:44:45;;;;;;;0.30;0.30;;;;;;;;;;6307181;28;20035;-71
2024/01/08 12:47:46;;;;;;;0.30;0.30;;;;;;;;;;6296673;28;20020;-73
2024/01/08 12:50:47;;;;;;;0.30;0.30;;;;;;;;;;6302711;28;20467;-71
2024/01/08 12:53:48;;;;;;;0.30;0.30;;;;;;;;;;6314933;28;20496;-71
2024/01/08 12:56:51;;;;;;;0.30;0.30;;;;;;;;;;6305607;28;20028;-71
2024/01/08 12:59:52;;;;;;;0.30;0.30;;;;;;;;;;6309880;28;20360;-71
2024/01/08 13:02:52;;;;;;;0.30;0.30;;;;;;;;;;6310942;28;20012;-72
2024/01/08 13:05:52;;;;;;;0.30;0.30;;;;;;;;;;6316193;28;20016;-71
2024/01/08 13:08:53;;;;;;;0.30;0.30;;;;;;;;;;6315481;28;20024;-72
2024/01/08 13:11:54;;;;;;;0.30;0.30;;;;;;;;;;6330822;28;20011;-72
2024/01/08 13:14:54;;;;;;;0.40;0.40;;;;;;;;;;6312477;28;20032;-71
2024/01/08 13:17:54;;;;;;;0.30;0.30;;;;;;;;;;6310009;28;20044;-72
2024/01/08 13:20:54;;;;;;;0.40;0.40;;;;;;;;;;6315193;28;20028;-71
2024/01/08 13:23:55;;;;;;;0.40;0.40;;;;;;;;;;6312610;28;20031;-72
2024/01/08 13:26:55;;;;;;;0.30;0.30;;;;;;;;;;6313996;28;20126;-71
2024/01/08 13:29:55;;;;;;;0.30;0.30;;;;;;;;;;6315752;28;20023;-71
2024/01/08 13:32:55;;;;;;;0.30;0.30;;;;;;;;;;6301813;28;20034;-71
2024/01/08 13:35:56;;;;;;;0.30;0.30;;;;;;;;;;6315665;28;20023;-72
2024/01/08 13:38:56;;;;;;;0.30;0.30;;;;;;;;;;6313471;28;20032;-71
2024/01/08 13:41:56;;;;;;;0.30;0.30;;;;;;;;;;6311754;28;20023;-71
2024/01/08 13:44:56;;;;;;;0.30;0.30;;;;;;;;;;6283425;28;20137;-71
2024/01/08 13:47:57;;;;;;;0.30;0.30;;;;;;;;;;6296033;28;20052;-71
2024/01/08 13:50:57;;;;;;;0.30;0.30;;;;;;;;;;6310107;28;20106;-71
2024/01/08 13:53:58;;;;;;;0.30;0.30;;;;;;;;;;6304198;28;20023;-71
2024/01/08 13:56:58;;;;;;;0.30;0.30;;;;;;;;;;6315638;28;20149;-71
2024/01/08 13:59:58;;;;;;;0.30;0.30;;;;;;;;;;6297817;28;20278;-71
2024/01/08 14:02:59;;;;;;;0.30;0.30;;;;;;;;;;6309203;28;20048;-71
2024/01/08 14:05:59;;;;;;;0.30;0.30;;;;;;;;;;6316252;28;20020;-72
2024/01/08 14:08:59;;;;;;;0.30;0.30;;;;;;;;;;6315225;28;20019;-72
2024/01/08 14:12:00;;;;;;;0.40;0.40;;;;;;;;;;6307333;28;20085;-73
2024/01/08 14:15:00;;;;;;;0.30;0.30;;;;;;;;;;6306567;28;20125;-72
2024/01/08 14:18:00;;;;;;;0.30;0.30;;;;;;;;;;6306193;28;20021;-73
2024/01/08 14:21:00;;;;;;;0.30;0.30;;;;;;;;;;6303062;28;20016;-73
2024/01/08 14:24:01;;;;;;;0.40;0.40;;;;;;;;;;6312251;28;20023;-74
2024/01/08 14:27:01;;;;;;;0.40;0.40;;;;;;;;;;6310436;28;20404;-73
2024/01/08 14:30:03;;;;;;;0.40;0.40;;;;;;;;;;6314036;28;20034;-73
2024/01/08 14:33:05;;;;;;;0.40;0.40;;;;;;;;;;6314173;28;20446;-73
2024/01/08 14:36:07;;;;;;;0.50;0.50;;;;;;;;;;6301601;28;20066;-73
2024/01/08 14:39:08;;;;;;;0.40;0.40;;;;;;;;;;6291669;28;20024;-73
2024/01/08 14:42:10;;;;;;;0.40;0.40;;;;;;;;;;6295687;28;20458;-73
2024/01/08 14:45:10;;;;;;;0.40;0.40;;;;;;;;;;6308166;28;20062;-73
2024/01/08 14:48:11;;;;;;;0.40;0.40;;;;;;;;;;6308751;28;20024;-72
2024/01/08 14:51:12;;;;;;;0.50;0.50;;;;;;;;;;6287643;28;20034;-73
2024/01/08 14:54:12;;;;;;;0.50;0.50;;;;;;;;;;6325384;28;20389;-73
2024/01/08 14:57:13;;;;;;;0.40;0.40;;;;;;;;;;6321043;28;20019;-73
2024/01/08 15:00:13;;;;;;;0.50;0.50;;;;;;;;;;6306546;28;20073;-73
2024/01/08 15:03:13;;;;;;;0.50;0.50;;;;;;;;;;6331278;28;20098;-73
2024/01/08 15:06:14;;;;;;;0.40;0.40;;;;;;;;;;6318794;28;20023;-73
2024/01/08 15:09:14;;;;;;;0.50;0.50;;;;;;;;;;6321957;28;20028;-72
2024/01/08 15:12:14;;;;;;;0.40;0.40;;;;;;;;;;6319963;28;20118;-74
2024/01/08 15:15:15;;;;;;;0.43;0.43;;;;;;;;;;6320864;28;20151;-73
2024/01/08 15:18:15;;;;;;;0.40;0.40;;;;;;;;;;6320981;28;20405;-73
2024/01/08 15:21:17;;;;;;;0.40;0.40;;;;;;;;;;6329012;28;20262;-73
2024/01/08 15:24:17;;;;;;;0.50;0.50;;;;;;;;;;6327757;28;20322;-72
2024/01/08 15:27:17;;;;;;;0.50;0.50;;;;;;;;;;6316632;28;20044;-73
2024/01/08 15:30:18;;;;;;;0.60;0.60;;;;;;;;;;6329758;28;20054;-72
2024/01/08 15:33:19;;;;;;;0.50;0.50;;;;;;;;;;6324678;28;20061;-73
2024/01/08 15:36:19;;;;;;;0.50;0.50;;;;;;;;;;6328499;28;20023;-70
2024/01/08 15:39:19;;;;;;;0.50;0.50;;;;;;;;;;6314406;28;20876;-71
2024/01/08 15:42:20;;;;;;;0.50;0.50;;;;;;;;;;6311849;28;20110;-71
2024/01/08 15:45:21;;;;;;;0.40;0.40;;;;;;;;;;6324142;28;20016;-70
2024/01/08 15:48:21;;;;;;;0.50;0.50;;;;;;;;;;6324786;28;20055;-70
2024/01/08 15:51:21;;;;;;;0.50;0.50;;;;;;;;;;6317991;28;20462;-71
2024/01/08 15:54:23;;;;;;;0.47;0.47;;;;;;;;;;6330825;28;20023;-71
2024/01/08 15:57:23;;;;;;;0.50;0.50;;;;;;;;;;6312879;28;20505;-70
2024/01/08 16:00:24;;;;;;;0.50;0.50;;;;;;;;;;6334120;28;20016;-70
2024/01/08 16:03:24;;;;;;;0.50;0.50;;;;;;;;;;6318079;28;20032;-70
2024/01/08 16:06:24;;;;;;;0.60;0.60;;;;;;;;;;6307467;28;20049;-72
2024/01/08 16:09:24;;;;;;;0.40;0.40;;;;;;;;;;6326451;28;20488;-77
2024/01/08 16:12:24;;;;;;;0.50;0.50;;;;;;;;;;6312977;28;20038;-76
2024/01/08 16:15:25;;;;;;;0.50;0.50;;;;;;;;;;6322958;28;20069;-75
2024/01/08 16:18:25;;;;;;;0.50;0.50;;;;;;;;;;6296140;28;20030;-72
2024/01/08 16:21:25;;;;;;;0.50;0.50;;;;;;;;;;6317793;28;20035;-73
2024/01/08 16:24:25;;;;;;;0.60;0.60;;;;;;;;;;6320538;28;20476;-71
2024/01/08 16:27:25;;;;;;;0.60;0.60;;;;;;;;;;6306979;28;20570;-71
2024/01/08 16:30:26;;;;;;;0.50;0.50;;;;;;;;;;6296486;28;20458;-71
2024/01/08 16:33:26;;;;;;;0.60;0.60;;;;;;;;;;6283291;28;20094;-71
2024/01/08 16:36:26;;;;;;;0.50;0.50;;;;;;;;;;6289131;28;20028;-72
2024/01/08 16:39:27;;;;;;;0.57;0.57;;;;;;;;;;6283778;28;20502;-72
2024/01/08 16:42:27;;;;;;;0.50;0.50;;;;;;;;;;6256032;28;20024;-72
2024/01/08 16:45:27;;;;;;;0.60;0.60;;;;;;;;;;6288998;28;20020;-74
2024/01/08 16:48:28;;;;;;;0.50;0.50;;;;;;;;;;6281511;28;20103;-74
2024/01/08 16:51:28;;;;;;;0.50;0.50;;;;;;;;;;6299926;28;20512;-74
2024/01/08 16:54:28;;;;;;;0.50;0.50;;;;;;;;;;6299403;28;20756;-73
2024/01/08 16:57:28;;;;;;;0.50;0.50;;;;;;;;;;6298688;28;20020;-73
2024/01/08 17:00:29;;;;;;;0.60;0.60;;;;;;;;;;6302696;28;20028;-71
2024/01/08 17:03:29;;;;;;;0.50;0.50;;;;;;;;;;6290339;28;20454;-71
2024/01/08 17:06:31;;;;;;;0.50;0.50;;;;;;;;;;6285687;28;20024;-72
2024/01/08 17:09:31;;;;;;;0.50;0.50;;;;;;;;;;6292327;28;20928;-71
2024/01/08 17:12:31;;;;;;;0.53;0.53;;;;;;;;;;6285160;28;20462;-72
2024/01/08 17:15:31;;;;;;;0.60;0.60;;;;;;;;;;6286799;28;20035;-71
2024/01/08 17:18:32;;;;;;;0.50;0.50;;;;;;;;;;6287403;28;20056;-71
2024/01/08 17:21:32;;;;;;;0.60;0.60;;;;;;;;;;6291548;28;20116;-71
2024/01/08 17:24:32;;;;;;;0.53;0.53;;;;;;;;;;6285367;28;20083;-71
2024/01/08 17:27:33;;;;;;;0.60;0.60;;;;;;;;;;6309817;28;20470;-71
2024/01/08 17:30:33;;;;;;;0.53;0.53;;;;;;;;;;6307464;28;20478;-72
2024/01/08 17:33:33;;;;;;;0.60;0.60;;;;;;;;;;6320843;28;20028;-71
2024/01/08 17:36:33;;;;;;;0.50;0.50;;;;;;;;;;6287553;28;20019;-72
2024/01/08 17:39:33;;;;;;;0.50;0.50;;;;;;;;;;6326304;28;20392;-72
2024/01/08 17:42:35;;;;;;;0.60;0.60;;;;;;;;;;6306902;28;20551;-72
2024/01/08 17:45:36;;;;;;;0.63;0.63;;;;;;;;;;6325911;28;20577;-71
2024/01/08 17:48:36;;;;;;;0.60;0.60;;;;;;;;;;6308454;28;20040;-71
2024/01/08 17:51:38;;;;;;;0.60;0.60;;;;;;;;;;6313326;28;20047;-71
2024/01/08 17:54:38;;;;;;;0.52;0.52;;;;;;;;;;6284785;28;20055;-71
2024/01/08 17:57:38;;;;;;;0.50;0.50;;;;;;;;;;6310625;28;20024;-71
2024/01/08 18:00:38;;;;;;;0.60;0.60;;;;;;;;;;6329582;28;20015;-71
2024/01/08 18:03:39;;;;;;;0.60;0.60;;;;;;;;;;6303027;28;20042;-71